createdAt,value
2017-08-30T00:01:04.995Z,18.71
2017-08-30T00:03:33.335Z,18.62
2017-08-30T00:06:01.688Z,18.70
2017-08-30T00:08:30.784Z,18.60
2017-08-30T00:10:59.132Z,18.62
2017-08-30T00:13:27.502Z,18.55
2017-08-30T00:15:55.863Z,18.53
2017-08-30T00:18:24.233Z,18.42
2017-08-30T00:20:53.369Z,18.46
2017-08-30T00:23:21.719Z,18.42
2017-08-30T00:26:07.842Z,18.52
2017-08-30T00:28:36.209Z,18.63
2017-08-30T00:31:04.552Z,18.39
2017-08-30T00:33:32.892Z,18.35
2017-08-30T00:36:01.260Z,18.47
2017-08-30T00:38:29.589Z,18.43
2017-08-30T00:40:58.427Z,18.51
2017-08-30T00:43:26.777Z,18.38
2017-08-30T00:45:55.132Z,18.30
2017-08-30T00:48:23.891Z,18.36
2017-08-30T00:50:52.265Z,18.48
2017-08-30T00:53:20.624Z,18.27
2017-08-30T00:55:48.964Z,18.30
2017-08-30T00:58:17.306Z,18.06
2017-08-30T01:00:45.655Z,18.13
2017-08-30T01:03:14.010Z,18.12
2017-08-30T01:05:42.356Z,18.11
2017-08-30T01:08:10.687Z,18.26
2017-08-30T01:10:39.035Z,18.10
2017-08-30T01:13:07.364Z,17.93
2017-08-30T01:15:35.719Z,17.90
2017-08-30T01:18:04.865Z,17.93
2017-08-30T01:20:33.489Z,17.98
2017-08-30T01:23:01.824Z,17.97
2017-08-30T01:25:30.204Z,17.99
2017-08-30T01:27:58.554Z,17.88
2017-08-30T01:30:26.886Z,18.03
2017-08-30T01:32:55.604Z,17.94
2017-08-30T01:35:23.919Z,18.01
2017-08-30T01:37:53.069Z,17.99
2017-08-30T01:40:21.397Z,17.84
2017-08-30T01:42:49.731Z,17.74
2017-08-30T01:45:18.847Z,17.67
2017-08-30T01:47:47.177Z,17.65
2017-08-30T01:50:15.532Z,17.64
2017-08-30T01:52:43.885Z,17.79
2017-08-30T01:55:12.507Z,17.75
2017-08-30T01:57:40.837Z,17.82
2017-08-30T02:00:09.228Z,17.77
2017-08-30T02:02:37.599Z,17.85
2017-08-30T02:05:06.082Z,17.73
2017-08-30T02:07:34.438Z,17.62
2017-08-30T02:10:02.783Z,17.52
2017-08-30T02:12:31.954Z,17.53
2017-08-30T02:15:00.311Z,17.52
2017-08-30T02:17:28.662Z,17.43
2017-08-30T02:19:57.013Z,17.39
2017-08-30T02:22:25.352Z,17.41
2017-08-30T02:24:54.454Z,17.58
2017-08-30T02:27:22.801Z,17.41
2017-08-30T02:29:51.460Z,17.28
2017-08-30T02:32:19.808Z,17.28
2017-08-30T02:34:48.154Z,17.36
2017-08-30T02:37:16.511Z,17.38
2017-08-30T02:39:45.758Z,17.38
2017-08-30T02:42:14.118Z,17.33
2017-08-30T02:44:42.933Z,17.20
2017-08-30T02:47:11.295Z,17.38
2017-08-30T02:49:40.423Z,17.34
2017-08-30T02:52:08.758Z,17.16
2017-08-30T02:54:37.117Z,17.13
2017-08-30T02:57:05.454Z,17.08
2017-08-30T02:59:33.827Z,17.23
2017-08-30T03:02:02.163Z,17.24
2017-08-30T03:04:30.900Z,17.22
2017-08-30T03:06:59.249Z,17.26
2017-08-30T03:09:27.591Z,17.24
2017-08-30T03:11:56.839Z,17.25
2017-08-30T03:14:25.177Z,17.31
2017-08-30T03:16:53.542Z,17.34
2017-08-30T03:19:21.899Z,17.24
2017-08-30T03:21:50.268Z,17.07
2017-08-30T03:24:18.586Z,17.11
2017-08-30T03:26:46.918Z,17.12
2017-08-30T03:29:15.275Z,17.21
2017-08-30T03:31:43.634Z,17.31
2017-08-30T03:34:11.993Z,17.21
2017-08-30T03:36:40.317Z,17.22
2017-08-30T03:39:08.675Z,17.21
2017-08-30T03:41:37.928Z,17.21
2017-08-30T03:44:06.808Z,17.10
2017-08-30T03:46:35.922Z,17.19
2017-08-30T03:49:04.257Z,17.09
2017-08-30T03:51:32.616Z,16.96
2017-08-30T03:54:00.940Z,16.94
2017-08-30T03:56:29.736Z,16.97
2017-08-30T03:58:58.068Z,17.12
2017-08-30T04:01:26.416Z,17.05
2017-08-30T04:03:54.777Z,17.07
2017-08-30T04:06:23.190Z,16.96
2017-08-30T04:08:51.535Z,17.05
2017-08-30T04:11:19.856Z,17.09
2017-08-30T04:13:48.617Z,17.08
2017-08-30T04:16:16.964Z,17.15
2017-08-30T04:18:46.104Z,17.19
2017-08-30T04:21:14.459Z,17.09
2017-08-30T04:23:42.802Z,16.90
2017-08-30T04:26:11.162Z,16.90
2017-08-30T04:28:39.488Z,16.91
2017-08-30T04:31:08.623Z,16.91
2017-08-30T04:33:36.987Z,16.97
2017-08-30T04:36:05.363Z,16.99
2017-08-30T04:38:33.770Z,17.04
2017-08-30T04:41:02.112Z,17.03
2017-08-30T04:43:30.465Z,16.79
2017-08-30T04:45:58.806Z,16.84
2017-08-30T04:48:27.183Z,16.74
2017-08-30T04:50:55.538Z,16.85
2017-08-30T04:53:23.881Z,16.92
2017-08-30T04:55:52.630Z,16.88
2017-08-30T04:58:20.987Z,16.94
2017-08-30T05:00:49.348Z,16.96
2017-08-30T05:03:17.701Z,16.92
2017-08-30T05:05:46.517Z,16.96
2017-08-30T05:08:14.870Z,16.98
2017-08-30T05:10:43.221Z,16.99
2017-08-30T05:13:11.586Z,17.01
2017-08-30T05:15:39.921Z,17.03
2017-08-30T05:18:08.669Z,16.99
2017-08-30T05:20:37.013Z,17.03
2017-08-30T05:23:05.823Z,16.97
2017-08-30T05:25:34.249Z,16.96
2017-08-30T05:28:02.570Z,17.12
2017-08-30T05:30:30.922Z,17.00
2017-08-30T05:32:59.262Z,16.98
2017-08-30T05:35:27.620Z,17.02
2017-08-30T05:37:55.973Z,16.96
2017-08-30T05:40:24.771Z,17.02
2017-08-30T05:42:53.104Z,17.03
2017-08-30T05:45:21.457Z,17.08
2017-08-30T05:47:49.887Z,17.08
2017-08-30T05:50:18.222Z,17.21
2017-08-30T05:52:46.579Z,17.24
2017-08-30T05:55:14.921Z,17.27
2017-08-30T05:57:44.060Z,17.48
2017-08-30T06:00:12.383Z,17.47
2017-08-30T06:02:40.736Z,17.47
2017-08-30T06:05:09.111Z,17.52
2017-08-30T06:07:37.470Z,17.53
2017-08-30T06:10:05.852Z,17.68
2017-08-30T06:12:34.189Z,17.80
2017-08-30T06:15:02.922Z,17.73
2017-08-30T06:17:32.313Z,17.66
2017-08-30T06:20:00.644Z,17.74
2017-08-30T06:22:29.027Z,17.85
2017-08-30T06:24:57.361Z,17.76
2017-08-30T06:27:25.763Z,17.76
2017-08-30T06:29:54.113Z,17.75
2017-08-30T06:32:22.754Z,17.85
2017-08-30T06:34:51.094Z,17.86
2017-08-30T06:37:19.434Z,17.90
2017-08-30T06:39:47.796Z,18.04
2017-08-30T06:42:16.142Z,18.16
2017-08-30T06:44:44.471Z,18.17
2017-08-30T06:47:12.811Z,18.17
2017-08-30T06:49:41.188Z,18.29
2017-08-30T06:52:09.534Z,18.33
2017-08-30T06:54:37.890Z,18.31
2017-08-30T06:57:06.241Z,18.37
2017-08-30T06:59:34.993Z,18.41
2017-08-30T07:02:04.237Z,18.54
2017-08-30T07:04:32.582Z,18.62
2017-08-30T07:07:01.453Z,18.73
2017-08-30T07:09:29.802Z,18.82
2017-08-30T07:11:58.127Z,18.94
2017-08-30T07:14:26.462Z,19.06
2017-08-30T07:16:55.302Z,19.17
2017-08-30T07:19:23.661Z,19.25
2017-08-30T07:21:52.083Z,19.29
2017-08-30T07:24:20.711Z,19.40
2017-08-30T07:26:49.756Z,19.50
2017-08-30T07:29:18.111Z,19.56
2017-08-30T07:31:46.469Z,19.66
2017-08-30T07:34:14.808Z,19.73
2017-08-30T07:36:43.202Z,19.79
2017-08-30T07:39:11.547Z,19.80
2017-08-30T07:41:40.295Z,19.85
2017-08-30T07:44:08.708Z,19.92
2017-08-30T07:46:37.061Z,20.01
2017-08-30T07:49:06.630Z,20.09
2017-08-30T07:51:34.968Z,20.22
2017-08-30T07:54:03.345Z,20.34
2017-08-30T07:56:31.863Z,20.46
2017-08-30T07:59:00.487Z,20.56
2017-08-30T08:01:28.834Z,20.71
2017-08-30T08:03:57.174Z,20.83
2017-08-30T08:06:25.553Z,20.95
2017-08-30T08:08:53.972Z,21.06
2017-08-30T08:11:22.334Z,21.22
2017-08-30T08:13:50.803Z,21.36
2017-08-30T08:16:19.530Z,21.48
2017-08-30T08:18:47.872Z,21.58
2017-08-30T08:21:16.211Z,21.72
2017-08-30T08:23:44.588Z,21.86
2017-08-30T08:26:12.930Z,21.98
2017-08-30T08:28:41.263Z,22.10
2017-08-30T08:31:10.372Z,22.21
2017-08-30T08:33:38.739Z,22.40
2017-08-30T08:36:07.949Z,22.64
2017-08-30T08:38:36.344Z,22.70
2017-08-30T08:41:04.686Z,22.86
2017-08-30T08:43:33.037Z,22.91
2017-08-30T08:46:01.457Z,23.00
2017-08-30T08:48:35.111Z,23.11
2017-08-30T08:51:03.992Z,23.15
2017-08-30T08:53:32.324Z,23.21
2017-08-30T08:56:06.620Z,23.31
2017-08-30T08:58:35.283Z,23.36
2017-08-30T09:01:05.375Z,23.39
2017-08-30T09:03:34.007Z,23.45
2017-08-30T09:06:06.553Z,23.50
2017-08-30T09:08:39.970Z,23.60
2017-08-30T09:11:10.357Z,23.66
2017-08-30T09:13:39.566Z,23.75
2017-08-30T09:16:08.918Z,23.79
2017-08-30T09:18:41.799Z,23.86
2017-08-30T09:21:11.411Z,23.94
2017-08-30T09:23:40.832Z,23.98
2017-08-30T09:26:12.663Z,24.06
2017-08-30T09:28:43.152Z,24.19
2017-08-30T09:31:13.391Z,24.22
2017-08-30T09:33:43.907Z,24.27
2017-08-30T09:36:15.748Z,24.33
2017-08-30T09:38:46.868Z,24.35
2017-08-30T09:41:16.781Z,24.39
2017-08-30T09:43:46.504Z,24.50
2017-08-30T09:46:17.531Z,24.61
2017-08-30T09:48:49.189Z,24.70
2017-08-30T09:51:19.740Z,24.82
2017-08-30T09:53:50.588Z,24.87
2017-08-30T09:56:22.159Z,24.92
2017-08-30T09:58:51.218Z,24.98
2017-08-30T10:01:22.158Z,25.07
2017-08-30T10:03:50.659Z,25.06
2017-08-30T10:06:23.108Z,25.19
2017-08-30T10:08:51.705Z,25.24
2017-08-30T10:11:20.532Z,25.30
2017-08-30T10:13:48.990Z,25.45
2017-08-30T10:16:17.330Z,25.46
2017-08-30T10:18:45.683Z,25.56
2017-08-30T10:21:14.032Z,25.61
2017-08-30T10:23:42.723Z,25.67
2017-08-30T10:26:11.074Z,25.74
2017-08-30T10:28:39.411Z,25.81
2017-08-30T10:31:07.759Z,25.86
2017-08-30T10:33:36.111Z,25.91
2017-08-30T10:36:04.875Z,25.94
2017-08-30T10:38:33.230Z,25.93
2017-08-30T10:41:02.838Z,25.95
2017-08-30T10:43:31.655Z,26.00
2017-08-30T10:46:00.023Z,26.05
2017-08-30T10:48:28.365Z,26.10
2017-08-30T10:50:56.723Z,26.18
2017-08-30T10:53:25.082Z,26.24
2017-08-30T10:55:53.485Z,26.31
2017-08-30T10:58:21.835Z,26.33
2017-08-30T11:00:50.210Z,26.29
2017-08-30T11:03:18.554Z,26.31
2017-08-30T11:05:46.893Z,26.26
2017-08-30T11:08:15.573Z,26.19
2017-08-30T11:10:43.910Z,26.18
2017-08-30T11:13:12.262Z,26.17
2017-08-30T11:15:40.619Z,26.15
2017-08-30T11:18:08.957Z,26.15
2017-08-30T11:20:37.699Z,26.12
2017-08-30T11:23:06.081Z,26.15
2017-08-30T11:25:34.424Z,26.11
2017-08-30T11:28:02.815Z,26.11
2017-08-30T11:30:31.159Z,26.12
2017-08-30T11:32:59.845Z,26.16
2017-08-30T11:35:28.193Z,26.21
2017-08-30T11:37:56.550Z,26.24
2017-08-30T11:40:24.913Z,26.10
2017-08-30T11:42:53.280Z,25.67
2017-08-30T11:45:21.677Z,25.76
2017-08-30T11:47:50.040Z,25.86
2017-08-30T11:50:21.918Z,25.96
2017-08-30T11:52:50.378Z,26.04
2017-08-30T11:55:18.704Z,26.08
2017-08-30T11:57:47.061Z,26.11
2017-08-30T12:00:15.385Z,26.15
2017-08-30T12:02:43.724Z,26.20
2017-08-30T12:05:12.065Z,26.24
2017-08-30T12:07:40.417Z,26.29
2017-08-30T12:10:08.796Z,26.30
2017-08-30T12:12:37.138Z,26.24
2017-08-30T12:15:05.489Z,26.37
2017-08-30T12:17:33.821Z,26.43
2017-08-30T12:20:02.180Z,26.40
2017-08-30T12:22:30.544Z,26.45
2017-08-30T12:24:58.881Z,26.43
2017-08-30T12:27:27.227Z,26.49
2017-08-30T12:29:55.582Z,26.53
2017-08-30T12:32:23.973Z,26.59
2017-08-30T12:34:52.373Z,26.55
2017-08-30T12:37:26.227Z,26.57
2017-08-30T12:39:54.582Z,26.58
2017-08-30T12:42:23.587Z,26.60
2017-08-30T12:44:51.959Z,26.64
2017-08-30T12:47:20.307Z,26.62
2017-08-30T12:49:48.703Z,26.62
2017-08-30T12:52:17.049Z,26.59
2017-08-30T12:54:45.403Z,26.64
2017-08-30T12:57:13.755Z,26.63
2017-08-30T12:59:42.111Z,26.59
2017-08-30T13:02:10.482Z,26.59
2017-08-30T13:04:38.813Z,26.58
2017-08-30T13:07:07.169Z,26.59
2017-08-30T13:09:35.520Z,26.59
2017-08-30T13:12:03.865Z,26.60
2017-08-30T13:14:32.202Z,26.71
2017-08-30T13:17:00.546Z,26.73
2017-08-30T13:19:28.911Z,26.85
2017-08-30T13:21:57.251Z,26.91
2017-08-30T13:24:25.660Z,26.92
2017-08-30T13:26:54.023Z,26.86
2017-08-30T13:29:22.676Z,26.91
2017-08-30T13:31:51.000Z,26.86
2017-08-30T13:34:19.343Z,26.85
2017-08-30T13:36:47.686Z,26.74
2017-08-30T13:39:16.023Z,26.69
2017-08-30T13:41:44.381Z,26.65
2017-08-30T13:44:12.731Z,26.69
2017-08-30T13:46:41.360Z,26.63
2017-08-30T13:49:09.692Z,26.56
2017-08-30T13:51:38.056Z,26.50
2017-08-30T13:54:06.403Z,26.54
2017-08-30T13:56:36.396Z,26.48
2017-08-30T13:59:04.755Z,26.47
2017-08-30T14:01:33.104Z,26.51
2017-08-30T14:04:01.755Z,26.45
2017-08-30T14:06:30.100Z,26.52
2017-08-30T14:08:58.430Z,26.59
2017-08-30T14:11:26.793Z,26.64
2017-08-30T14:13:55.142Z,27.03
2017-08-30T14:16:23.495Z,27.19
2017-08-30T14:18:51.819Z,27.48
2017-08-30T14:21:20.428Z,27.85
2017-08-30T14:23:48.774Z,27.95
2017-08-30T14:26:17.127Z,28.01
2017-08-30T14:28:45.548Z,27.93
2017-08-30T14:31:13.887Z,27.85
2017-08-30T14:33:42.518Z,27.70
2017-08-30T14:36:11.026Z,27.62
2017-08-30T14:38:39.373Z,27.41
2017-08-30T14:41:07.729Z,27.37
2017-08-30T14:43:36.079Z,27.21
2017-08-30T14:46:04.445Z,27.11
2017-08-30T14:48:32.786Z,26.98
2017-08-30T14:51:01.402Z,27.00
2017-08-30T14:53:29.854Z,26.97
2017-08-30T14:55:58.213Z,27.00
2017-08-30T14:58:26.598Z,26.98
2017-08-30T15:00:54.947Z,26.91
2017-08-30T15:03:23.338Z,26.81
2017-08-30T15:05:51.700Z,26.72
2017-08-30T15:08:20.049Z,26.74
2017-08-30T15:10:48.397Z,26.70
2017-08-30T15:13:16.746Z,26.67
2017-08-30T15:15:45.090Z,26.63
2017-08-30T15:18:14.302Z,26.60
2017-08-30T15:20:42.778Z,26.52
2017-08-30T15:23:11.151Z,26.50
2017-08-30T15:25:39.530Z,26.51
2017-08-30T15:28:07.873Z,26.51
2017-08-30T15:30:36.253Z,26.48
2017-08-30T15:33:04.622Z,26.45
2017-08-30T15:35:32.963Z,26.39
2017-08-30T15:38:01.344Z,26.36
2017-08-30T15:40:29.725Z,26.29
2017-08-30T15:42:58.071Z,26.20
2017-08-30T15:45:26.422Z,26.11
2017-08-30T15:47:54.771Z,26.05
2017-08-30T15:50:23.111Z,26.01
2017-08-30T15:52:51.465Z,25.95
2017-08-30T15:55:19.858Z,25.94
2017-08-30T15:57:48.206Z,25.88
2017-08-30T16:00:16.523Z,25.90
2017-08-30T16:02:44.880Z,25.86
2017-08-30T16:05:13.217Z,25.82
2017-08-30T16:07:41.576Z,25.72
2017-08-30T16:10:09.925Z,25.68
2017-08-30T16:12:38.551Z,25.69
2017-08-30T16:15:06.882Z,25.66
2017-08-30T16:17:35.220Z,25.59
2017-08-30T16:20:03.607Z,25.52
2017-08-30T16:22:31.952Z,25.56
2017-08-30T16:25:00.298Z,25.56
2017-08-30T16:27:28.654Z,25.55
2017-08-30T16:29:57.283Z,25.49
2017-08-30T16:32:25.612Z,25.48
2017-08-30T16:34:53.961Z,25.42
2017-08-30T16:37:22.315Z,25.38
2017-08-30T16:39:50.651Z,25.30
2017-08-30T16:42:19.449Z,25.31
2017-08-30T16:44:48.222Z,25.31
2017-08-30T16:47:16.577Z,25.29
2017-08-30T16:49:44.947Z,25.32
2017-08-30T16:52:13.304Z,25.30
2017-08-30T16:54:41.688Z,25.25
2017-08-30T16:57:10.015Z,25.24
2017-08-30T16:59:38.374Z,25.19
2017-08-30T17:02:06.716Z,25.19
2017-08-30T17:04:35.351Z,25.18
2017-08-30T17:07:03.727Z,25.18
2017-08-30T17:09:32.058Z,25.12
2017-08-30T17:12:00.420Z,25.16
2017-08-30T17:14:28.773Z,25.12
2017-08-30T17:16:57.924Z,25.02
2017-08-30T17:19:26.251Z,25.08
2017-08-30T17:21:54.590Z,25.02
2017-08-30T17:24:22.952Z,24.99
2017-08-30T17:26:51.288Z,24.92
2017-08-30T17:29:19.921Z,24.79
2017-08-30T17:31:48.265Z,24.83
2017-08-30T17:34:16.614Z,24.79
2017-08-30T17:36:44.976Z,24.71
2017-08-30T17:39:13.322Z,24.59
2017-08-30T17:41:41.817Z,24.53
2017-08-30T17:44:10.160Z,24.52
2017-08-30T17:46:38.547Z,24.44
2017-08-30T17:49:06.905Z,24.47
2017-08-30T17:51:35.230Z,24.52
2017-08-30T17:54:06.116Z,24.34
2017-08-30T17:56:34.477Z,24.33
2017-08-30T17:59:02.835Z,24.28
2017-08-30T18:01:31.166Z,24.26
2017-08-30T18:04:00.430Z,24.03
2017-08-30T18:06:28.779Z,23.89
2017-08-30T18:08:57.126Z,23.84
2017-08-30T18:11:25.562Z,23.73
2017-08-30T18:13:53.913Z,23.62
2017-08-30T18:16:22.299Z,23.63
2017-08-30T18:18:50.697Z,23.61
2017-08-30T18:21:19.359Z,23.44
2017-08-30T18:23:47.691Z,23.28
2017-08-30T18:26:16.016Z,23.30
2017-08-30T18:28:44.381Z,23.27
2017-08-30T18:31:12.709Z,23.15
2017-08-30T18:33:41.339Z,23.10
2017-08-30T18:36:09.690Z,23.10
2017-08-30T18:38:39.660Z,23.12
2017-08-30T18:41:08.165Z,23.00
2017-08-30T18:43:36.521Z,22.98
2017-08-30T18:46:05.604Z,22.88
2017-08-30T18:48:33.967Z,22.79
2017-08-30T18:51:02.610Z,22.78
2017-08-30T18:53:31.856Z,22.78
2017-08-30T18:56:00.192Z,22.77
2017-08-30T18:58:28.553Z,22.76
2017-08-30T19:00:56.888Z,22.65
2017-08-30T19:03:25.279Z,22.64
2017-08-30T19:05:53.633Z,22.63
2017-08-30T19:08:22.265Z,22.73
2017-08-30T19:10:50.868Z,22.67
2017-08-30T19:13:19.205Z,22.71
2017-08-30T19:15:47.560Z,22.74
2017-08-30T19:18:15.892Z,22.64
2017-08-30T19:20:44.243Z,22.69
2017-08-30T19:23:12.661Z,22.56
2017-08-30T19:25:40.984Z,22.48
2017-08-30T19:28:13.649Z,22.46
2017-08-30T19:30:42.005Z,22.44
2017-08-30T19:33:10.369Z,22.46
2017-08-30T19:35:38.918Z,22.40
2017-08-30T19:38:07.340Z,22.32
2017-08-30T19:40:35.745Z,22.20
2017-08-30T19:43:04.085Z,22.14
2017-08-30T19:45:32.446Z,22.15
2017-08-30T19:48:00.791Z,22.08
2017-08-30T19:50:29.423Z,22.02
2017-08-30T19:52:57.772Z,22.06
2017-08-30T19:55:26.118Z,22.03
2017-08-30T19:57:54.455Z,22.12
2017-08-30T20:00:22.801Z,22.05
2017-08-30T20:02:51.170Z,22.04
2017-08-30T20:05:19.525Z,21.98
2017-08-30T20:07:48.144Z,21.95
2017-08-30T20:10:16.511Z,22.06
2017-08-30T20:12:45.685Z,22.01
2017-08-30T20:15:14.064Z,21.96
2017-08-30T20:17:42.389Z,21.82
2017-08-30T20:20:10.740Z,21.79
2017-08-30T20:22:39.073Z,21.84
2017-08-30T20:25:07.686Z,21.85
2017-08-30T20:27:36.018Z,21.89
2017-08-30T20:30:04.354Z,21.74
2017-08-30T20:32:33.616Z,21.84
2017-08-30T20:35:01.947Z,21.81
2017-08-30T20:37:30.375Z,21.84
2017-08-30T20:39:58.728Z,21.93
2017-08-30T20:42:27.367Z,21.87
2017-08-30T20:44:55.713Z,21.76
2017-08-30T20:47:24.065Z,21.82
2017-08-30T20:49:52.416Z,21.86
2017-08-30T20:52:20.755Z,21.88
2017-08-30T20:54:49.134Z,21.78
2017-08-30T20:57:17.479Z,21.79
2017-08-30T20:59:46.080Z,21.75
2017-08-30T21:02:14.984Z,21.83
2017-08-30T21:04:43.886Z,21.79
2017-08-30T21:07:12.868Z,21.86
2017-08-30T21:09:41.765Z,21.86
2017-08-30T21:12:10.951Z,21.88
2017-08-30T21:14:39.828Z,21.86
2017-08-30T21:17:08.666Z,21.77
2017-08-30T21:19:37.033Z,21.77
2017-08-30T21:22:05.415Z,21.78
2017-08-30T21:24:33.864Z,21.81
2017-08-30T21:27:02.196Z,21.73
2017-08-30T21:29:30.556Z,21.71
2017-08-30T21:31:58.917Z,21.65
2017-08-30T21:34:27.245Z,21.73
2017-08-30T21:36:56.444Z,21.74
2017-08-30T21:39:24.768Z,21.72
2017-08-30T21:41:53.112Z,21.69
2017-08-30T21:44:21.456Z,21.68
2017-08-30T21:46:49.821Z,21.66
2017-08-30T21:49:18.173Z,21.67
2017-08-30T21:51:46.505Z,21.68
2017-08-30T21:54:14.858Z,21.73
2017-08-30T21:56:43.181Z,21.71
2017-08-30T21:59:11.528Z,21.70
2017-08-30T22:01:39.861Z,21.63
2017-08-30T22:04:08.463Z,21.67
2017-08-30T22:06:36.783Z,21.64
2017-08-30T22:09:05.096Z,21.63
2017-08-30T22:11:33.440Z,21.53
2017-08-30T22:14:01.788Z,21.56
2017-08-30T22:16:30.122Z,21.50
2017-08-30T22:18:58.439Z,21.49
2017-08-30T22:21:26.801Z,21.47
2017-08-30T22:23:55.175Z,21.44
2017-08-30T22:26:23.499Z,21.41
2017-08-30T22:28:51.837Z,21.39
2017-08-30T22:31:20.157Z,21.36
2017-08-30T22:33:48.505Z,21.39
2017-08-30T22:36:16.822Z,21.34
2017-08-30T22:38:45.199Z,21.32
2017-08-30T22:41:13.555Z,21.29
2017-08-30T22:43:41.871Z,21.28
2017-08-30T22:46:10.225Z,21.22
2017-08-30T22:48:38.566Z,21.23
2017-08-30T22:51:06.909Z,21.29
2017-08-30T22:53:35.256Z,21.27
2017-08-30T22:56:03.583Z,21.23
2017-08-30T22:58:31.935Z,21.12
2017-08-30T23:01:00.298Z,21.11
2017-08-30T23:03:28.902Z,21.07
2017-08-30T23:05:57.231Z,21.06
2017-08-30T23:08:25.551Z,21.08
2017-08-30T23:10:53.892Z,21.01
2017-08-30T23:13:22.216Z,21.01
2017-08-30T23:15:50.564Z,20.94
2017-08-30T23:18:18.935Z,20.95
2017-08-30T23:20:47.550Z,20.90
2017-08-30T23:23:15.885Z,20.89
2017-08-30T23:25:44.203Z,20.87
2017-08-30T23:28:12.535Z,20.87
2017-08-30T23:30:40.880Z,20.90
2017-08-30T23:33:09.265Z,20.92
2017-08-30T23:35:37.614Z,20.87
2017-08-30T23:38:06.231Z,20.82
2017-08-30T23:40:34.568Z,20.83
2017-08-30T23:43:02.911Z,20.88
2017-08-30T23:45:31.260Z,20.90
2017-08-30T23:47:59.593Z,20.83
2017-08-30T23:50:27.954Z,20.85
2017-08-30T23:52:56.290Z,20.78
2017-08-30T23:55:24.652Z,20.82
2017-08-30T23:57:52.992Z,20.84
